Data for 03/07/2014

Time Sea-Level Adjusted Pressure Absolute Pressure Temperature Relative Humidity Dew Point   
(mb) (inHg) (mb) (inHg) (C) (F) (%) (C) (F)
00:05 1014 29.94 843 24.89 1.8 35.2 83 -0.8 30.6
00:10 1014 29.94 843 24.89 2 35.6 80 -1.1 30.1
00:15 1014 29.94 843 24.89 2.1 35.7 80 -1 30.2
00:20 1014 29.94 843 24.89 2 35.6 78 -1.4 29.5
00:25 1014 29.94 843 24.89 2.4 36.2 76 -1.5 29.4
00:30 1014 29.94 843 24.89 2.6 36.7 75 -1.3 29.7
00:35 1014 29.94 843 24.89 2.5 36.6 75 -1.4 29.6
00:40 1014 29.94 843 24.89 2.5 36.6 76 -1.3 29.6
00:45 1014 29.94 843 24.89 2.5 36.5 75 -1.4 29.4
00:50 1014 29.94 843 24.89 2.5 36.4 77 -1.2 29.8
00:55 1014 29.94 843 24.89 1.6 34.8 84 -0.9 30.3
01:00 1014 29.94 843 24.89 1.3 34.3 83 -1.3 29.7
01:05 1014 29.94 843 24.89 1.5 34.7 82 -1.2 29.9
01:10 1014 29.94 843 24.89 1.5 34.8 82 -1.2 29.9
01:15 1014 29.94 843 24.89 1.6 34.9 81 -1.3 29.6
01:20 1014 29.94 843 24.89 1.8 35.3 81 -1.1 30
01:25 1014 29.94 843 24.89 1.7 35.1 82 -1.1 30
01:30 1014 29.94 843 24.89 1.4 34.5 84 -1 30.2
01:35 1014 29.94 843 24.89 1.1 33.9 85 -1.2 29.9
01:40 1014 29.94 843 24.89 1 33.8 85 -1.2 29.8
01:45 1014 29.94 843 24.89 0.9 33.7 85 -1.3 29.6
01:50 1014 29.94 843 24.89 1.1 34 84 -1.3 29.6
01:55 1014 29.94 843 24.89 1 33.8 85 -1.2 29.8
02:00 1014 29.94 843 24.89 0.8 33.4 85 -1.5 29.3
02:05 1014 29.94 843 24.89 1 33.9 84 -1.4 29.4
02:10 1014 29.94 843 24.89 1.1 34 83 -1.4 29.5
02:15 1014 29.94 843 24.89 0.9 33.7 84 -1.5 29.4
02:20 1014 29.94 843 24.89 0.8 33.4 84 -1.6 29.1
02:25 1014 29.94 843 24.89 1 33.7 82 -1.8 28.8
02:30 1014 29.94 843 24.89 1 33.8 83 -1.5 29.2
02:35 1014 29.94 843 24.89 0.7 33.3 85 -1.6 29.2
02:40 1014 29.94 843 24.89 0.6 33 85 -1.7 28.9
02:45 1014 29.94 843 24.89 0.6 33.2 83 -1.9 28.6
02:50 1014 29.94 843 24.89 1 33.8 80 -2 28.3
02:55 1014 29.94 844 24.92 1.2 34.2 79 -2 28.5
03:00 1014 29.94 844 24.92 1.1 33.9 81 -1.8 28.8
03:05 1014 29.94 844 24.92 0.8 33.5 83 -1.8 28.8
03:10 1014 29.94 844 24.92 0.9 33.5 83 -1.7 28.9
03:15 1015 29.97 844 24.92 0.8 33.4 84 -1.6 29
03:20 1015 29.97 844 24.92 0.9 33.7 84 -1.5 29.3
03:25 1015 29.97 844 24.92 1.1 34 84 -1.3 29.6
03:30 1015 29.97 844 24.92 1.1 34 84 -1.4 29.6
03:35 1015 29.97 844 24.92 1.1 34 83 -1.4 29.4
03:40 1015 29.97 844 24.92 1.2 34.1 83 -1.5 29.4
03:45 1015 29.97 844 24.92 1.2 34.2 82 -1.5 29.3
03:50 1015 29.97 844 24.92 1.4 34.5 80 -1.7 29
03:55 1015 29.97 844 24.92 1.6 34.8 80 -1.5 29.2
04:00 1015 29.97 844 24.92 1.6 34.9 80 -1.5 29.3
04:05 1015 29.97 844 24.92 1.6 34.9 78 -1.8 28.8
04:10 1015 29.97 844 24.92 1.6 34.9 76 -2.1 28.2
04:15 1015 29.97 844 24.92 1.8 35.2 76 -2 28.4
04:20 1015 29.97 844 24.92 1.7 35.1 76 -2 28.3
04:25 1015 29.97 844 24.92 1.6 34.9 74 -2.5 27.5
04:30 1015 29.97 844 24.92 1.7 35 73 -2.6 27.4
04:35 1015 29.97 844 24.92 1.7 35.1 73 -2.6 27.3
04:40 1015 29.97 844 24.92 1.8 35.2 73 -2.5 27.5
04:45 1015 29.97 844 24.92 1.7 35.1 73 -2.5 27.4
04:50 1015 29.97 844 24.92 1.9 35.4 71 -2.9 26.8
04:55 1015 29.97 844 24.92 2.1 35.8 71 -2.7 27.2
05:00 1015 29.97 844 24.92 2.1 35.7 75 -1.9 28.5
05:05 1015 29.97 844 24.92 1.8 35.2 76 -2 28.4
05:10 1015 29.97 844 24.92 1.6 34.9 76 -2.2 28.1
05:15 1015 29.97 844 24.92 1.7 35 74 -2.4 27.6
05:20 1015 29.97 845 24.95 2 35.5 73 -2.4 27.6
05:25 1015 29.97 845 24.95 2.2 35.9 71 -2.6 27.3
05:30 1016 30 845 24.95 2.3 36.1 73 -2.1 28.1
05:35 1016 30 845 24.95 2.2 35.9 72 -2.3 27.9
05:40 1016 30 845 24.95 2.2 35.9 73 -2.2 28
05:45 1016 30 845 24.95 2.1 35.8 72 -2.4 27.6
05:50 1016 30 845 24.95 2.3 36.2 71 -2.3 27.8
05:55 1016 30 845 24.95 2.4 36.4 72 -2.2 28
06:00 1016 30 845 24.95 2.4 36.4 72 -2.1 28.2
06:05 1016 30 846 24.98 2.4 36.3 73 -1.9 28.5
06:10 1016 30 846 24.98 2.2 35.9 76 -1.7 29
06:15 1017 30.03 846 24.98 1.9 35.3 79 -1.4 29.6
06:20 1017 30.03 846 24.98 1.6 34.9 81 -1.2 29.8
06:25 1017 30.03 846 24.98 1.5 34.6 83 -1.1 30
06:30 1017 30.03 846 24.98 1.4 34.5 84 -1 30.1
06:35 1017 30.03 846 24.98 1.4 34.4 84 -1 30.2
06:40 1017 30.03 846 24.98 1.3 34.3 84 -1.1 30.1
06:45 1017 30.03 846 24.98 1.3 34.3 85 -1 30.3
06:50 1017 30.03 846 24.98 1.2 34.2 86 -0.9 30.3
06:55 1017 30.03 846 24.98 1.2 34.1 86 -0.9 30.3
07:00 1017 30.03 846 24.98 1.1 34 86 -0.9 30.4
07:05 1017 30.03 846 24.98 0.9 33.6 89 -0.7 30.7
07:10 1017 30.03 846 24.98 0.5 33 91 -0.7 30.7
07:15 1017 30.03 846 24.98 0.5 32.8 92 -0.7 30.8
07:20 1017 30.03 846 24.98 0.4 32.8 92 -0.7 30.7
07:25 1017 30.03 846 24.98 0.4 32.8 92 -0.7 30.7
07:30 1017 30.03 846 24.98 0.5 32.9 91 -0.7 30.7
07:35 1017 30.03 846 24.98 0.5 32.9 91 -0.7 30.7
07:40 1017 30.03 847 25.01 0.5 32.8 92 -0.8 30.6
07:45 1018 30.06 847 25.01 0.4 32.8 92 -0.8 30.6
07:50 1018 30.06 847 25.01 0.4 32.7 92 -0.8 30.5
07:55 1018 30.06 847 25.01 0.5 32.9 91 -0.8 30.6
08:00 1018 30.06 847 25.01 0.5 32.9 91 -0.8 30.6
08:05 1018 30.06 847 25.01 0.5 32.9 91 -0.8 30.6
08:10 1018 30.06 847 25.01 0.5 32.9 91 -0.8 30.6
08:15 1018 30.06 847 25.01 0.6 33.2 90 -0.8 30.6
08:20 1018 30.06 847 25.01 0.8 33.5 89 -0.7 30.7
08:25 1018 30.06 847 25.01 0.8 33.5 89 -0.8 30.6
08:30 1018 30.06 847 25.01 0.8 33.4 90 -0.7 30.8
08:35 1018 30.06 847 25.01 0.8 33.4 90 -0.7 30.8
08:40 1018 30.06 847 25.01 0.8 33.4 90 -0.7 30.7
08:45 1018 30.06 847 25.01 0.9 33.5 89 -0.7 30.8
08:50 1018 30.06 848 25.04 1 33.8 89 -0.6 30.9
08:55 1018 30.06 848 25.04 1.1 33.9 89 -0.6 30.9
09:00 1018 30.06 848 25.04 1.2 34.1 88 -0.6 30.8
09:05 1018 30.06 848 25.04 1.1 33.9 88 -0.7 30.8
09:10 1018 30.06 848 25.04 1 33.8 87 -0.8 30.5
09:15 1018 30.06 848 25.04 1.1 33.9 87 -0.9 30.4
09:20 1018 30.06 848 25.04 1.1 34 87 -0.9 30.4
09:25 1018 30.06 848 25.04 1.2 34.1 87 -0.8 30.5
09:30 1018 30.06 848 25.04 1.4 34.5 84 -1 30.2
09:35 1018 30.06 848 25.04 1.5 34.7 84 -0.9 30.3
09:40 1018 30.06 848 25.04 1.7 35 84 -0.8 30.6
09:45 1018 30.06 848 25.04 1.8 35.3 83 -0.8 30.6
09:50 1019 30.09 848 25.04 1.9 35.4 82 -0.9 30.4
09:55 1019 30.09 848 25.04 1.9 35.5 81 -0.9 30.3
10:00 1019 30.09 848 25.04 1.8 35.3 82 -0.9 30.4
10:05 1019 30.09 848 25.04 1.7 35.1 83 -0.9 30.5
10:10 1019 30.09 848 25.04 1.7 35 83 -0.9 30.4
10:15 1019 30.09 848 25.04 1.8 35.3 80 -1.2 29.9
10:20 1019 30.09 848 25.04 2 35.7 79 -1.2 29.9
10:25 1019 30.09 848 25.04 2.2 35.9 78 -1.2 29.9
10:30 1019 30.09 848 25.04 2.2 35.9 78 -1.3 29.7
10:35 1019 30.09 848 25.04 2.3 36.1 75 -1.7 28.9
10:40 1019 30.09 848 25.04 2.7 36.9 72 -1.8 28.7
10:45 1019 30.09 848 25.04 2.8 37 71 -1.9 28.5
10:50 1019 30.09 848 25.04 2.9 37.3 70 -2 28.3
10:55 1019 30.09 848 25.04 3.2 37.7 70 -1.9 28.6
11:00 1019 30.09 848 25.04 3.3 38 70 -1.7 28.9
11:05 1019 30.09 848 25.04 3.4 38 68 -1.9 28.5
11:10 1019 30.09 848 25.04 3.5 38.4 65 -2.4 27.7
11:15 1019 30.09 848 25.04 3.9 38.9 63 -2.5 27.6
11:20 1019 30.09 848 25.04 4 39.3 62 -2.6 27.3
11:25 1019 30.09 848 25.04 4.3 39.7 62 -2.5 27.6
11:30 1019 30.09 848 25.04 4.6 40.2 61 -2.4 27.7
11:35 1019 30.09 848 25.04 4.6 40.3 63 -1.7 28.9
11:40 1019 30.09 848 25.04 5.1 41.1 60 -2 28.3
11:45 1019 30.09 848 25.04 4.8 40.6 60 -2.4 27.8
11:50 1019 30.09 848 25.04 4.9 40.9 58 -2.7 27.1
11:55 1019 30.09 848 25.04 5.1 41.2 57 -2.6 27.3
12:00 1019 30.09 848 25.04 5.4 41.7 56 -2.6 27.4
12:05 1019 30.09 848 25.04 5.4 41.8 52 -3.5 25.7
12:10 1019 30.09 848 25.04 5.7 42.2 52 -3.5 25.7
12:15 1019 30.09 848 25.04 5.8 42.4 53 -2.9 26.7
12:20 1019 30.09 848 25.04 5.6 42 55 -2.8 27
12:25 1019 30.09 848 25.04 5.1 41.3 58 -2.4 27.7
12:30 1019 30.09 848 25.04 5.3 41.6 53 -3.5 25.6
12:35 1019 30.09 848 25.04 5.4 41.7 55 -2.9 26.8
12:40 1019 30.09 848 25.04 5.1 41.2 52 -3.9 25.1
12:45 1019 30.09 848 25.04 5.8 42.4 51 -3.5 25.6
12:50 1019 30.09 848 25.04 6.3 43.4 50 -3.3 26.1
12:55 1019 30.09 848 25.04 6.3 43.3 49 -3.6 25.4
13:00 1019 30.09 848 25.04 6.3 43.4 51 -3.1 26.5
13:05 1019 30.09 849 25.07 6.3 43.4 49 -3.7 25.4
13:10 1019 30.09 849 25.07 6.5 43.6 49 -3.4 25.9
13:15 1019 30.09 849 25.07 7.2 44.9 44 -4.4 24.1
13:20 1019 30.09 849 25.07 7.1 44.9 46 -3.7 25.4
13:25 1020 30.12 849 25.07 6.7 44.1 48 -3.6 25.5
13:30 1020 30.12 849 25.07 6.6 43.9 48 -3.7 25.3
13:35 1020 30.12 849 25.07 6.5 43.7 49 -3.3 26.1
13:40 1020 30.12 849 25.07 6.6 43.9 49 -3.4 25.8
13:45 1019 30.09 849 25.07 6.8 44.3 47 -3.7 25.3
13:50 1019 30.09 849 25.07 6.9 44.4 47 -3.7 25.3
13:55 1019 30.09 849 25.07 6.9 44.4 49 -3.1 26.5
14:00 1020 30.12 849 25.07 7.2 44.9 47 -3.4 25.9
14:05 1019 30.09 849 25.07 7.1 44.8 46 -3.6 25.6
14:10 1019 30.09 849 25.07 6.7 44.1 48 -3.6 25.5
14:15 1019 30.09 849 25.07 6.4 43.5 49 -3.6 25.6
14:20 1019 30.09 849 25.07 6.2 43.2 48 -3.9 25
14:25 1019 30.09 849 25.07 6.3 43.3 47 -4.1 24.6
14:30 1020 30.12 849 25.07 6.5 43.6 47 -4.1 24.6
14:35 1020 30.12 849 25.07 6.5 43.7 48 -3.8 25.2
14:40 1020 30.12 849 25.07 6.5 43.7 46 -4.3 24.2
14:45 1020 30.12 849 25.07 6.4 43.6 47 -4 24.8
14:50 1020 30.12 849 25.07 6.6 43.8 47 -3.9 25
14:55 1020 30.12 849 25.07 6.7 44.1 48 -3.5 25.7
15:00 1020 30.12 849 25.07 6.6 44 47 -3.9 24.9
15:05 1020 30.12 849 25.07 6.4 43.6 48 -3.8 25.1
15:10 1020 30.12 849 25.07 6.4 43.5 48 -3.8 25.1
15:15 1020 30.12 849 25.07 6.4 43.5 47 -4 24.8
15:20 1020 30.12 849 25.07 6.3 43.4 47 -4.1 24.6
15:25 1020 30.12 849 25.07 6.3 43.4 48 -3.8 25.1
15:30 1020 30.12 849 25.07 6.3 43.3 48 -3.9 25
15:35 1020 30.12 849 25.07 6.2 43.2 50 -3.6 25.6
15:40 1020 30.12 849 25.07 6.1 43 50 -3.6 25.6
15:45 1020 30.12 849 25.07 6.1 43 51 -3.2 26.3
15:50 1020 30.12 849 25.07 6.2 43.2 48 -4 24.9
15:55 1020 30.12 849 25.07 6.2 43.1 49 -3.7 25.3
16:00 1020 30.12 849 25.07 6.4 43.5 47 -4 24.8
16:05 1020 30.12 849 25.07 6.5 43.6 47 -3.9 24.9
16:10 1020 30.12 849 25.07 6.5 43.7 47 -4 24.9
16:15 1020 30.12 849 25.07 6.5 43.6 48 -3.8 25.1
16:20 1020 30.12 849 25.07 6.4 43.5 49 -3.7 25.4
16:25 1020 30.12 849 25.07 6.4 43.5 49 -3.6 25.6
16:30 1020 30.12 849 25.07 6.4 43.5 49 -3.4 25.8
16:35 1020 30.12 849 25.07 6.4 43.6 50 -3.3 26
16:40 1020 30.12 849 25.07 6.4 43.6 48 -3.7 25.3
16:45 1020 30.12 849 25.07 6.4 43.6 49 -3.5 25.6
16:50 1020 30.12 849 25.07 6.5 43.7 49 -3.5 25.8
16:55 1020 30.12 849 25.07 6.6 43.9 48 -3.5 25.7
17:00 1020 30.12 849 25.07 6.7 44.1 46 -4.1 24.5
17:05 1020 30.12 850 25.1 6.5 43.7 49 -3.5 25.7
17:10 1020 30.12 850 25.1 6.6 43.8 48 -3.5 25.6
17:15 1020 30.12 850 25.1 6.6 43.9 49 -3.4 25.9
17:20 1020 30.12 850 25.1 6.6 43.9 48 -3.5 25.6
17:25 1021 30.15 850 25.1 6.4 43.5 50 -3.2 26.2
17:30 1021 30.15 850 25.1 6.3 43.3 50 -3.2 26.2
17:35 1021 30.15 850 25.1 6.2 43.2 51 -3.2 26.2
17:40 1021 30.15 850 25.1 5.9 42.7 52 -3.3 26.1
17:45 1021 30.15 850 25.1 5.7 42.3 52 -3.4 25.8
17:50 1021 30.15 850 25.1 5.6 42.1 52 -3.5 25.8
17:55 1021 30.15 850 25.1 5.5 42 52 -3.5 25.8
18:00 1021 30.15 850 25.1 5.4 41.7 53 -3.5 25.8
18:05 1021 30.15 850 25.1 5.2 41.4 53 -3.5 25.7
18:10 1021 30.15 850 25.1 5.2 41.3 54 -3.3 26.1
18:15 1021 30.15 850 25.1 5.1 41.2 55 -3.1 26.4
18:20 1021 30.15 851 25.13 5 41 56 -3 26.6
18:25 1021 30.15 851 25.13 4.8 40.7 57 -2.9 26.7
18:30 1021 30.15 851 25.13 4.7 40.5 58 -2.8 27
18:35 1021 30.15 851 25.13 4.7 40.4 58 -2.9 26.8
18:40 1021 30.15 851 25.13 4.7 40.4 58 -2.9 26.8
18:45 1022 30.18 851 25.13 4.6 40.2 59 -2.8 26.9
18:50 1022 30.18 851 25.13 4.4 40 59 -2.9 26.9
18:55 1022 30.18 851 25.13 4.4 39.9 58 -3.1 26.5
19:00 1022 30.18 851 25.13 4.3 39.7 60 -2.9 26.8
19:05 1022 30.18 851 25.13 4.1 39.5 61 -2.8 27
19:10 1022 30.18 851 25.13 4 39.1 62 -2.7 27.1
19:15 1022 30.18 851 25.13 3.9 39 61 -2.9 26.9
19:20 1022 30.18 851 25.13 3.9 39 60 -3.1 26.4
19:25 1022 30.18 851 25.13 3.9 39.1 59 -3.2 26.2
19:30 1022 30.18 851 25.13 4 39.1 59 -3.3 26.1
19:35 1022 30.18 851 25.13 3.9 39 60 -3.1 26.5
19:40 1022 30.18 851 25.13 3.7 38.6 61 -3.2 26.2
19:45 1022 30.18 851 25.13 3.7 38.7 58 -3.8 25.2
19:50 1022 30.18 851 25.13 3.8 38.9 59 -3.4 25.9
19:55 1022 30.18 851 25.13 3.6 38.5 61 -3.2 26.2
20:00 1022 30.18 851 25.13 3.5 38.2 60 -3.5 25.7
20:05 1022 30.18 851 25.13 3.6 38.4 60 -3.5 25.7
20:10 1022 30.18 851 25.13 3.6 38.5 60 -3.5 25.8
20:15 1022 30.18 851 25.13 3.6 38.6 58 -3.8 25.2
20:20 1022 30.18 851 25.13 3.7 38.6 58 -3.9 25
20:25 1022 30.18 851 25.13 3.7 38.6 59 -3.7 25.4
20:30 1022 30.18 851 25.13 3.7 38.7 57 -4.1 24.6
20:35 1022 30.18 851 25.13 3.8 38.8 56 -4.2 24.5
20:40 1022 30.18 851 25.13 3.8 38.8 56 -4.3 24.3
20:45 1022 30.18 851 25.13 3.9 39 55 -4.3 24.3
20:50 1022 30.18 851 25.13 3.8 38.9 55 -4.3 24.3
20:55 1022 30.18 851 25.13 3.8 38.9 58 -3.8 25.2
21:00 1022 30.18 851 25.13 3.4 38.2 60 -3.7 25.4
21:05 1022 30.18 851 25.13 3.3 37.9 59 -4 24.8
21:10 1022 30.18 851 25.13 3.4 38.1 59 -3.8 25.1
21:15 1022 30.18 852 25.16 3.4 38.1 59 -3.9 25
21:20 1022 30.18 852 25.16 3.4 38 60 -3.7 25.3
21:25 1022 30.18 852 25.16 3.2 37.8 60 -3.8 25.2
21:30 1022 30.18 852 25.16 3 37.5 61 -3.8 25.1
21:35 1022 30.18 852 25.16 2.9 37.2 61 -3.8 25.2
21:40 1022 30.18 852 25.16 2.8 37 61 -3.9 25
21:45 1022 30.18 852 25.16 2.8 37 63 -3.5 25.6
21:50 1022 30.18 852 25.16 2.3 36.1 66 -3.5 25.7
21:55 1023 30.21 852 25.16 2.2 36 66 -3.5 25.7
22:00 1023 30.21 852 25.16 2.2 35.9 66 -3.5 25.6
22:05 1023 30.21 852 25.16 2.1 35.8 66 -3.6 25.5
22:10 1023 30.21 852 25.16 2.1 35.8 66 -3.5 25.6
22:15 1023 30.21 852 25.16 1.8 35.3 69 -3.3 26.1
22:20 1023 30.21 852 25.16 1.7 35 68 -3.6 25.6
22:25 1023 30.21 852 25.16 1.7 35 66 -4 24.9
22:30 1023 30.21 852 25.16 2.1 35.7 63 -4.2 24.4
22:35 1023 30.21 852 25.16 2.4 36.3 63 -4 24.8
22:40 1023 30.21 852 25.16 2.3 36.1 63 -4 24.9
22:45 1023 30.21 852 25.16 2.2 36 64 -3.9 25
22:50 1023 30.21 852 25.16 1.8 35.3 66 -3.9 25
22:55 1023 30.21 852 25.16 1.3 34.4 67 -4.1 24.5
23:00 1023 30.21 852 25.16 1.2 34.2 66 -4.4 24.1
23:05 1023 30.21 852 25.16 1.4 34.5 65 -4.5 23.8
23:10 1023 30.21 852 25.16 1.7 35 63 -4.6 23.8
23:15 1023 30.21 852 25.16 1.9 35.4 62 -4.6 23.7
23:20 1023 30.21 853 25.19 1.9 35.4 64 -4.3 24.3
23:25 1023 30.21 853 25.19 1.4 34.5 65 -4.4 24.1
23:30 1023 30.21 853 25.19 1.1 34 65 -4.8 23.4
23:35 1023 30.21 853 25.19 1.3 34.4 64 -4.7 23.5
23:40 1023 30.21 853 25.19 1.5 34.8 63 -4.8 23.4
23:45 1023 30.21 853 25.19 1.8 35.3 62 -4.8 23.4
23:50 1023 30.21 853 25.19 1.9 35.4 62 -4.7 23.6
23:55 1023 30.21 853 25.19 1.8 35.3 62 -4.7 23.5
24:00 1024 30.24 853 25.19 1.8 35.3 62 -4.7 23.5